Terminal Aerodrome Forecast
Issued by NWS

Home | Current Version | Previous Version | Text Only | Print | Product List | Glossary On
Versions: 1 2 3 4 5 6 7 8 9 10 11 12 13 14 15 16 17 18 19
000
FTUS43 KTOP 252300
TAFMHK
TAF
KMHK 252320Z 2600/2624 18010KT P6SM OVC080
     FM260700 26009KT P6SM VCSH SCT025 OVC050
     FM260830 31010KT P6SM SCT025 BKN050
     FM261400 31012G25KT P6SM BKN035=

USA.gov is the U.S. government's official web portal to all federal, state and local government web resources and services.